Airfield :
LOGIN :

Register | Disclaimer

   EN    FR    IT 

 










Legend :    VFR   Marginal VFR   IFR   Intensive IFR   Very Intensive IFR
Visi :
Ceiling :
>= 8 km
>= 3000ft
5 to 8 km
1000 to 3000 ft
1500m to 5 km
500 to 1000 ft
800 to 1500m
200 to 500 ft
< 800m
< 200 ft
Symbols :   Thunderstorms  Fog  Heavy snow  Heavy precipitations  Wind > 20 kt
SIGMETs :     Misc.  Thunderstorms  Icing  Turbulence  Mountain Waves  Volcanic Ashes






- Airport Elevation : 154 ft
- IATA code : SZZ


EPSC - Szczecin Goleniow

CURRENT METAR :
  • 051630Z 17006KT CAVOK 01/M01 Q1016

EXPIRED METARs :
  • 051600Z 18005KT 150V220 CAVOK 01/M01 Q1016
  • 051530Z 18008KT CAVOK 02/M01 Q1016
  • 051500Z 17009KT CAVOK 02/M01 Q1016
  • 051430Z 17007KT CAVOK 03/M01 Q1016
  • 051400Z 17006KT CAVOK 04/M00 Q1016

TAF TAF EPSC
Valid from the 05 at 12:00 until the 06 at 12:00 UTC


051130Z 0512/0612 19006KT CAVOK
BECMG 0606/0609 22016KT -RA BKN014
PROB40
TEMPO 0609/0612 4000 RA BKN005 OVC010



MET'MAP, your aeronautical weather chart ! - Copyright ORBIFLY December 2007 - Disclaimer

ORBIFLY MET'MAP TEAM :

Programming & Development : Alexandra Zaïnal
Concept & original design : Baudouin d'Aumeries
Assistance for programming : Marc-Olivier Méhu
Technical & hardware support : Manuel Goepfert

Contact : metmap@orbifly.com




SOURCES & CREDITS :

   NOAA